Airfield :
LOGIN :

Register | Disclaimer

   EN    FR    IT 

 










Legend :    VFR   Marginal VFR   IFR   Intensive IFR   Very Intensive IFR
Visi :
Ceiling :
>= 8 km
>= 3000ft
5 to 8 km
1000 to 3000 ft
1500m to 5 km
500 to 1000 ft
800 to 1500m
200 to 500 ft
< 800m
< 200 ft
Symbols :   Thunderstorms  Fog  Heavy snow  Heavy precipitations  Wind > 20 kt
SIGMETs :     Misc.  Thunderstorms  Icing  Turbulence  Mountain Waves  Volcanic Ashes






- Airport Elevation : 489 ft
- IATA code : GDN


EPGD - Gdansk

CURRENT METAR :
  • 131200Z 03004KT 360V080 6000 -RA OVC002 06/06 Q1002

EXPIRED METARs :
  • 131130Z 35003KT 6000 -RA OVC003 06/06 Q1002
  • 131100Z 33003KT 5000 -RA BR FEW002 OVC003 06/06 Q1002
  • 131030Z VRB02KT 4000 -RA BR BKN002 06/06 Q1002
  • 131000Z VRB01KT 2000 -RA BR OVC002 06/06 Q1003

TAF TAF EPGD
Valid from the 13 at 12:00 until the 14 at 12:00 UTC


131130Z 1312/1412 VRB04KT 4500 -RA BR BKN003
TEMPO 1312/1316 2500 -RA BR BKN002
PROB40 1320/1403 1500 RA OVC002
BECMG 1402/1405 31010KT BKN006
PROB40 1403/1409 -RA BKN004
BECMG 1409/1411 23005KT BKN014



MET'MAP, your aeronautical weather chart ! - Copyright ORBIFLY December 2007 - Disclaimer

ORBIFLY MET'MAP TEAM :

Programming & Development : Alexandra Zaïnal
Concept & Development : Baudouin d'Aumeries
Co-Development & Prog : Marc-Olivier Méhu
Technical & hardware support : Manuel Goepfert

Contact : metmap@orbifly.com




SOURCES & CREDITS :

   NOAA